UACC/TSE METAR and TAF weather

Enter ICAO airport designator
Station Type Date Time Source
UACC METAR 2021/08/02 03:00 UTC NOAA

UACC 020300Z 31002MPS 250V350 CAVOK 25/16 Q1011 R22/0///70 NOSIG RMK QFE727/0970


Station Type Date Time Source
UACC Decoded METAR 2021/08/02 03:00 UTC NOAA

Astana, Kazakhstan (UACC) 51-12N 071-27E
Aug 01, 2021 - 11:00 PM EDT / 2021.08.02 0300 UTC
Wind: from the NW (310 degrees) at 4 MPH (4 KT) (direction variable):0
Visibility: greater than 7 mile(s):0
Temperature: 77 F (25 C)
Dew Point: 60 F (16 C)
Relative Humidity: 57%
Pressure (altimeter): 29.85 in. Hg (1011 hPa)
ob: UACC 020300Z 31002MPS 250V350 CAVOK 25/16 Q1011 R22/0///70 NOSIG RMK QFE727/0970
cycle: 3

Station Type Date Time Source
UACC TAF 2021/08/01 18:22 UTC NOAA

TAF UACC 011700Z 0118/0218 VRB02MPS 9999 SCT030 BKN100 TX33/0209Z TN17/0123Z
TEMPO 0118/0203 22004MPS SCT030CB
BECMG 0203/0205 33005MPS

Example: see airport list